sensor_id;sensor_type;location;lat;lon;timestamp;pressure;altitude;pressure_sealevel;temperature;humidity
44988;BME280;35735;52.226;21.254;2022-10-16T00:03:07;100441.63;;;14.77;100.00
44988;BME280;35735;52.226;21.254;2022-10-16T00:08:09;100437.94;;;14.81;100.00
44988;BME280;35735;52.226;21.254;2022-10-16T00:13:10;100439.78;;;14.79;100.00
44988;BME280;35735;52.226;21.254;2022-10-16T00:18:11;100450.66;;;14.79;100.00
44988;BME280;35735;52.226;21.254;2022-10-16T00:23:12;100448.84;;;14.78;100.00
44988;BME280;35735;52.226;21.254;2022-10-16T00:28:12;100447.06;;;14.77;100.00
44988;BME280;35735;52.226;21.254;2022-10-16T00:33:13;100439.84;;;14.76;100.00
44988;BME280;35735;52.226;21.254;2022-10-16T00:38:14;100442.59;;;14.73;100.00
44988;BME280;35735;52.226;21.254;2022-10-16T00:43:42;100440.87;;;14.67;100.00
44988;BME280;35735;52.226;21.254;2022-10-16T00:48:52;100436.28;;;14.71;100.00
44988;BME280;35735;52.226;21.254;2022-10-16T00:54:04;100441.72;;;14.71;100.00
44988;BME280;35735;52.226;21.254;2022-10-16T00:59:23;100453.59;;;14.65;100.00
44988;BME280;35735;52.226;21.254;2022-10-16T01:04:42;100461.78;;;14.63;100.00
44988;BME280;35735;52.226;21.254;2022-10-16T01:10:17;100464.41;;;14.67;100.00
44988;BME280;35735;52.226;21.254;2022-10-16T01:15:55;100457.22;;;14.64;100.00
44988;BME280;35735;52.226;21.254;2022-10-16T01:21:22;100479.94;;;14.58;100.00
44988;BME280;35735;52.226;21.254;2022-10-16T01:26:44;100489.94;;;14.53;100.00
44988;BME280;35735;52.226;21.254;2022-10-16T01:32:24;100489.19;;;14.45;100.00
44988;BME280;35735;52.226;21.254;2022-10-16T01:37:39;100467.53;;;14.40;100.00
44988;BME280;35735;52.226;21.254;2022-10-16T01:42:46;100473.03;;;14.34;100.00
44988;BME280;35735;52.226;21.254;2022-10-16T01:47:49;100488.53;;;14.26;100.00
44988;BME280;35735;52.226;21.254;2022-10-16T01:52:52;100489.50;;;14.23;100.00
44988;BME280;35735;52.226;21.254;2022-10-16T01:57:56;100484.16;;;14.17;100.00
44988;BME280;35735;52.226;21.254;2022-10-16T02:02:59;100491.50;;;14.09;100.00
44988;BME280;35735;52.226;21.254;2022-10-16T02:08:02;100496.06;;;14.07;100.00
44988;BME280;35735;52.226;21.254;2022-10-16T02:13:11;100478.00;;;14.03;100.00
44988;BME280;35735;52.226;21.254;2022-10-16T02:18:14;100483.50;;;13.98;100.00
44988;BME280;35735;52.226;21.254;2022-10-16T02:23:22;100485.28;;;13.99;100.00
44988;BME280;35735;52.226;21.254;2022-10-16T02:28:52;100481.78;;;13.91;100.00
44988;BME280;35735;52.226;21.254;2022-10-16T02:33:58;100479.16;;;13.85;100.00
44988;BME280;35735;52.226;21.254;2022-10-16T02:39:00;100477.41;;;13.79;100.00
44988;BME280;35735;52.226;21.254;2022-10-16T02:44:02;100472.94;;;13.77;100.00
44988;BME280;35735;52.226;21.254;2022-10-16T02:49:03;100482.88;;;13.75;100.00
44988;BME280;35735;52.226;21.254;2022-10-16T02:54:04;100477.41;;;13.79;100.00
44988;BME280;35735;52.226;21.254;2022-10-16T02:59:04;100480.09;;;13.81;100.00
44988;BME280;35735;52.226;21.254;2022-10-16T03:04:05;100477.44;;;13.76;100.00
44988;BME280;35735;52.226;21.254;2022-10-16T03:09:05;100475.56;;;13.80;100.00
44988;BME280;35735;52.226;21.254;2022-10-16T03:14:06;100490.06;;;13.80;100.00
44988;BME280;35735;52.226;21.254;2022-10-16T03:19:06;100494.66;;;13.75;100.00
44988;BME280;35735;52.226;21.254;2022-10-16T03:24:07;100499.16;;;13.73;100.00
44988;BME280;35735;52.226;21.254;2022-10-16T03:29:08;100510.06;;;13.70;100.00
44988;BME280;35735;52.226;21.254;2022-10-16T03:34:08;100511.94;;;13.65;100.00
44988;BME280;35735;52.226;21.254;2022-10-16T03:39:09;100514.59;;;13.66;100.00
44988;BME280;35735;52.226;21.254;2022-10-16T03:44:09;100522.81;;;13.62;100.00
44988;BME280;35735;52.226;21.254;2022-10-16T03:49:10;100523.69;;;13.64;100.00
44988;BME280;35735;52.226;21.254;2022-10-16T03:54:10;100524.53;;;13.69;100.00
44988;BME280;35735;52.226;21.254;2022-10-16T03:59:11;100518.22;;;13.68;100.00
44988;BME280;35735;52.226;21.254;2022-10-16T04:04:11;100526.34;;;13.70;100.00
44988;BME280;35735;52.226;21.254;2022-10-16T04:09:12;100525.47;;;13.66;100.00
44988;BME280;35735;52.226;21.254;2022-10-16T04:14:12;100525.53;;;13.63;100.00
44988;BME280;35735;52.226;21.254;2022-10-16T04:19:13;100527.28;;;13.64;100.00
44988;BME280;35735;52.226;21.254;2022-10-16T04:24:13;100526.41;;;13.64;100.00
44988;BME280;35735;52.226;21.254;2022-10-16T04:29:14;100516.50;;;13.60;100.00
44988;BME280;35735;52.226;21.254;2022-10-16T04:34:15;100521.91;;;13.60;100.00
44988;BME280;35735;52.226;21.254;2022-10-16T04:39:15;100523.75;;;13.56;100.00
44988;BME280;35735;52.226;21.254;2022-10-16T04:44:17;100528.31;;;13.56;100.00
44988;BME280;35735;52.226;21.254;2022-10-16T04:49:17;100540.03;;;13.56;100.00
44988;BME280;35735;52.226;21.254;2022-10-16T04:54:18;100531.03;;;13.52;100.00
44988;BME280;35735;52.226;21.254;2022-10-16T04:59:19;100541.06;;;13.44;100.00
44988;BME280;35735;52.226;21.254;2022-10-16T05:04:21;100546.50;;;13.41;100.00
44988;BME280;35735;52.226;21.254;2022-10-16T05:09:21;100552.00;;;13.37;100.00
44988;BME280;35735;52.226;21.254;2022-10-16T05:14:22;100553.78;;;13.36;100.00
44988;BME280;35735;52.226;21.254;2022-10-16T05:19:22;100562.84;;;13.37;100.00
44988;BME280;35735;52.226;21.254;2022-10-16T05:24:23;100564.66;;;13.33;100.00
44988;BME280;35735;52.226;21.254;2022-10-16T05:29:23;100568.31;;;13.32;100.00
44988;BME280;35735;52.226;21.254;2022-10-16T05:34:24;100570.06;;;13.34;100.00
44988;BME280;35735;52.226;21.254;2022-10-16T05:39:24;100588.12;;;13.37;100.00
44988;BME280;35735;52.226;21.254;2022-10-16T05:44:25;100595.41;;;13.35;100.00
44988;BME280;35735;52.226;21.254;2022-10-16T05:49:27;100594.47;;;13.34;100.00
44988;BME280;35735;52.226;21.254;2022-10-16T05:54:27;100584.47;;;13.40;100.00
44988;BME280;35735;52.226;21.254;2022-10-16T05:59:28;100591.69;;;13.42;100.00
44988;BME280;35735;52.226;21.254;2022-10-16T06:04:28;100589.84;;;13.47;100.00
44988;BME280;35735;52.226;21.254;2022-10-16T06:09:29;100588.00;;;13.52;100.00
44988;BME280;35735;52.226;21.254;2022-10-16T06:14:29;100607.84;;;13.55;100.00
44988;BME280;35735;52.226;21.254;2022-10-16T06:19:30;100614.19;;;13.57;100.00
44988;BME280;35735;52.226;21.254;2022-10-16T06:24:31;100621.31;;;13.65;100.00
44988;BME280;35735;52.226;21.254;2022-10-16T06:29:31;100622.12;;;13.78;100.00
44988;BME280;35735;52.226;21.254;2022-10-16T06:34:32;100625.56;;;13.93;100.00
44988;BME280;35735;52.226;21.254;2022-10-16T06:39:32;100627.13;;;14.18;100.00
44988;BME280;35735;52.226;21.254;2022-10-16T06:44:33;100629.44;;;14.48;100.00
44988;BME280;35735;52.226;21.254;2022-10-16T06:49:33;100636.34;;;14.76;100.00
44988;BME280;35735;52.226;21.254;2022-10-16T06:54:34;100640.44;;;15.07;100.00
44988;BME280;35735;52.226;21.254;2022-10-16T06:59:34;100641.00;;;15.30;100.00
44988;BME280;35735;52.226;21.254;2022-10-16T07:04:36;100640.75;;;15.44;100.00
44988;BME280;35735;52.226;21.254;2022-10-16T07:09:36;100643.06;;;15.70;100.00
44988;BME280;35735;52.226;21.254;2022-10-16T07:14:37;100659.06;;;15.90;100.00
44988;BME280;35735;52.226;21.254;2022-10-16T07:19:37;100660.50;;;16.08;100.00
44988;BME280;35735;52.226;21.254;2022-10-16T07:24:38;100667.47;;;16.25;100.00
44988;BME280;35735;52.226;21.254;2022-10-16T07:29:38;100682.75;;;16.32;100.00
44988;BME280;35735;52.226;21.254;2022-10-16T07:34:39;100697.38;;;16.28;100.00
44988;BME280;35735;52.226;21.254;2022-10-16T07:39:39;100694.72;;;16.23;100.00
44988;BME280;35735;52.226;21.254;2022-10-16T07:44:40;100686.62;;;16.20;100.00
44988;BME280;35735;52.226;21.254;2022-10-16T07:49:41;100673.00;;;16.20;100.00
44988;BME280;35735;52.226;21.254;2022-10-16T07:54:41;100670.25;;;16.22;100.00
44988;BME280;35735;52.226;21.254;2022-10-16T07:59:42;100675.47;;;16.34;100.00
44988;BME280;35735;52.226;21.254;2022-10-16T08:04:42;100663.50;;;16.43;100.00
44988;BME280;35735;52.226;21.254;2022-10-16T08:09:43;100663.00;;;16.66;100.00
44988;BME280;35735;52.226;21.254;2022-10-16T08:14:43;100650.84;;;16.82;100.00
44988;BME280;35735;52.226;21.254;2022-10-16T08:19:47;100658.84;;;16.92;100.00
44988;BME280;35735;52.226;21.254;2022-10-16T08:24:48;100669.50;;;17.04;100.00
44988;BME280;35735;52.226;21.254;2022-10-16T08:29:49;100668.75;;;17.35;100.00
44988;BME280;35735;52.226;21.254;2022-10-16T08:34:49;100676.25;;;17.64;100.00
44988;BME280;35735;52.226;21.254;2022-10-16T08:39:50;100670.19;;;17.86;100.00
44988;BME280;35735;52.226;21.254;2022-10-16T08:45:11;100683.63;;;17.96;100.00
44988;BME280;35735;52.226;21.254;2022-10-16T08:50:27;100685.16;;;18.07;100.00
44988;BME280;35735;52.226;21.254;2022-10-16T08:55:33;100672.28;;;18.12;100.00
44988;BME280;35735;52.226;21.254;2022-10-16T09:00:46;100683.22;;;18.12;100.00
44988;BME280;35735;52.226;21.254;2022-10-16T09:11:46;100706.31;;;17.99;99.95
44988;BME280;35735;52.226;21.254;2022-10-16T09:16:58;100700.97;;;17.94;100.00
44988;BME280;35735;52.226;21.254;2022-10-16T09:22:10;100703.44;;;18.05;100.00
44988;BME280;35735;52.226;21.254;2022-10-16T09:27:14;100713.22;;;18.13;100.00
44988;BME280;35735;52.226;21.254;2022-10-16T09:32:18;100709.41;;;18.19;100.00
44988;BME280;35735;52.226;21.254;2022-10-16T09:37:21;100702.88;;;18.26;100.00
44988;BME280;35735;52.226;21.254;2022-10-16T09:42:30;100687.72;;;18.46;100.00
44988;BME280;35735;52.226;21.254;2022-10-16T09:47:37;100681.47;;;18.74;99.74
44988;BME280;35735;52.226;21.254;2022-10-16T09:52:41;100695.47;;;18.94;99.28
44988;BME280;35735;52.226;21.254;2022-10-16T09:57:54;100691.22;;;19.14;99.16
44988;BME280;35735;52.226;21.254;2022-10-16T10:02:55;100689.06;;;19.25;98.22
44988;BME280;35735;52.226;21.254;2022-10-16T10:08:01;100694.44;;;19.28;97.85
44988;BME280;35735;52.226;21.254;2022-10-16T10:13:02;100700.75;;;19.30;97.87
44988;BME280;35735;52.226;21.254;2022-10-16T10:18:16;100690.38;;;19.41;97.92
44988;BME280;35735;52.226;21.254;2022-10-16T10:23:22;100682.44;;;19.60;97.53
44988;BME280;35735;52.226;21.254;2022-10-16T10:28:42;100705.66;;;19.77;96.93
44988;BME280;35735;52.226;21.254;2022-10-16T10:39:43;100700.38;;;19.97;96.59
44988;BME280;35735;52.226;21.254;2022-10-16T10:45:00;100682.84;;;20.03;96.20
44988;BME280;35735;52.226;21.254;2022-10-16T10:50:25;100679.00;;;20.09;96.08
44988;BME280;35735;52.226;21.254;2022-10-16T10:55:57;100673.34;;;20.13;95.64
44988;BME280;35735;52.226;21.254;2022-10-16T11:01:14;100668.91;;;20.09;95.55
44988;BME280;35735;52.226;21.254;2022-10-16T11:06:19;100679.94;;;20.08;95.67
44988;BME280;35735;52.226;21.254;2022-10-16T11:11:46;100688.09;;;20.09;95.46
44988;BME280;35735;52.226;21.254;2022-10-16T11:17:08;100673.41;;;20.12;95.42
44988;BME280;35735;52.226;21.254;2022-10-16T11:22:26;100669.31;;;20.24;95.73
44988;BME280;35735;52.226;21.254;2022-10-16T11:27:36;100663.38;;;20.36;95.41
44988;BME280;35735;52.226;21.254;2022-10-16T11:38:14;100674.13;;;20.42;94.59
44988;BME280;35735;52.226;21.254;2022-10-16T11:43:32;100671.56;;;20.37;94.73
44988;BME280;35735;52.226;21.254;2022-10-16T11:48:41;100676.03;;;20.40;94.15
44988;BME280;35735;52.226;21.254;2022-10-16T11:54:14;100685.31;;;20.36;94.25
44988;BME280;35735;52.226;21.254;2022-10-16T11:59:34;100679.78;;;20.37;93.88
44988;BME280;35735;52.226;21.254;2022-10-16T12:04:43;100674.25;;;20.39;93.97
44988;BME280;35735;52.226;21.254;2022-10-16T12:09:48;100672.38;;;20.40;94.21
44988;BME280;35735;52.226;21.254;2022-10-16T12:15:00;100664.09;;;20.41;94.28
44988;BME280;35735;52.226;21.254;2022-10-16T12:20:23;100675.13;;;20.40;94.05
44988;BME280;35735;52.226;21.254;2022-10-16T12:25:39;100672.56;;;20.35;93.89
44988;BME280;35735;52.226;21.254;2022-10-16T12:30:41;100669.06;;;20.31;93.76
44988;BME280;35735;52.226;21.254;2022-10-16T12:35:44;100681.91;;;20.29;94.29
44988;BME280;35735;52.226;21.254;2022-10-16T12:40:46;100684.37;;;20.37;94.20
44988;BME280;35735;52.226;21.254;2022-10-16T13:19:13;100703.66;;;20.34;94.45
44988;BME280;35735;52.226;21.254;2022-10-16T13:24:52;100702.00;;;20.30;94.61
44988;BME280;35735;52.226;21.254;2022-10-16T13:30:27;100702.22;;;20.24;94.50
44988;BME280;35735;52.226;21.254;2022-10-16T13:35:31;100704.22;;;20.18;94.49
44988;BME280;35735;52.226;21.254;2022-10-16T13:40:33;100711.72;;;20.13;94.87
44988;BME280;35735;52.226;21.254;2022-10-16T13:45:33;100717.41;;;20.07;95.08
44988;BME280;35735;52.226;21.254;2022-10-16T13:50:34;100731.25;;;20.03;95.34
44988;BME280;35735;52.226;21.254;2022-10-16T13:55:34;100719.59;;;19.96;95.44
44988;BME280;35735;52.226;21.254;2022-10-16T14:00:35;100729.72;;;19.94;95.76
44988;BME280;35735;52.226;21.254;2022-10-16T14:05:36;100732.47;;;19.94;95.83
44988;BME280;35735;52.226;21.254;2022-10-16T14:10:49;100727.19;;;19.88;95.95
44988;BME280;35735;52.226;21.254;2022-10-16T14:15:52;100719.72;;;19.93;96.19
44988;BME280;35735;52.226;21.254;2022-10-16T14:20:52;100725.09;;;19.96;96.22
44988;BME280;35735;52.226;21.254;2022-10-16T14:25:53;100726.78;;;20.00;96.33
44988;BME280;35735;52.226;21.254;2022-10-16T14:30:56;100717.59;;;20.01;96.21
44988;BME280;35735;52.226;21.254;2022-10-16T14:41:09;100746.06;;;19.97;96.19
44988;BME280;35735;52.226;21.254;2022-10-16T14:46:14;100742.37;;;19.98;96.17
44988;BME280;35735;52.226;21.254;2022-10-16T14:51:19;100749.75;;;19.96;96.27
44988;BME280;35735;52.226;21.254;2022-10-16T14:56:23;100755.25;;;19.94;96.35
44988;BME280;35735;52.226;21.254;2022-10-16T15:01:24;100748.13;;;19.90;96.63
44988;BME280;35735;52.226;21.254;2022-10-16T15:06:25;100748.22;;;19.87;96.80
44988;BME280;35735;52.226;21.254;2022-10-16T15:11:26;100747.53;;;19.80;97.01
44988;BME280;35735;52.226;21.254;2022-10-16T15:16:26;100745.66;;;19.81;97.18
44988;BME280;35735;52.226;21.254;2022-10-16T15:21:29;100759.37;;;19.81;97.31
44988;BME280;35735;52.226;21.254;2022-10-16T15:26:31;100758.47;;;19.80;97.45
44988;BME280;35735;52.226;21.254;2022-10-16T15:31:32;100758.38;;;19.84;97.51
44988;BME280;35735;52.226;21.254;2022-10-16T15:36:34;100768.44;;;19.83;97.55
44988;BME280;35735;52.226;21.254;2022-10-16T15:41:36;100753.88;;;19.81;97.70
44988;BME280;35735;52.226;21.254;2022-10-16T15:46:36;100765.06;;;19.75;97.71
44988;BME280;35735;52.226;21.254;2022-10-16T15:51:38;100767.75;;;19.76;98.03
44988;BME280;35735;52.226;21.254;2022-10-16T15:56:40;100770.66;;;19.70;98.04
44988;BME280;35735;52.226;21.254;2022-10-16T16:01:41;100781.78;;;19.64;98.26
44988;BME280;35735;52.226;21.254;2022-10-16T16:06:41;100788.41;;;19.57;98.45
44988;BME280;35735;52.226;21.254;2022-10-16T16:11:42;100786.81;;;19.50;98.65
44988;BME280;35735;52.226;21.254;2022-10-16T16:16:42;100796.06;;;19.46;98.93
44988;BME280;35735;52.226;21.254;2022-10-16T16:21:43;100798.22;;;19.34;99.04
44988;BME280;35735;52.226;21.254;2022-10-16T16:26:44;100806.56;;;19.31;99.36
44988;BME280;35735;52.226;21.254;2022-10-16T16:31:44;100815.81;;;19.25;99.51
44988;BME280;35735;52.226;21.254;2022-10-16T16:36:45;100816.91;;;19.20;99.74
44988;BME280;35735;52.226;21.254;2022-10-16T16:41:45;100820.66;;;19.16;99.87
44988;BME280;35735;52.226;21.254;2022-10-16T16:46:46;100825.41;;;19.09;100.00
44988;BME280;35735;52.226;21.254;2022-10-16T16:51:46;100828.47;;;18.98;100.00
44988;BME280;35735;52.226;21.254;2022-10-16T16:56:47;100827.66;;;18.95;100.00
44988;BME280;35735;52.226;21.254;2022-10-16T17:01:48;100836.00;;;18.90;100.00
44988;BME280;35735;52.226;21.254;2022-10-16T17:06:49;100846.09;;;18.88;100.00
44988;BME280;35735;52.226;21.254;2022-10-16T17:11:49;100848.91;;;18.85;100.00
44988;BME280;35735;52.226;21.254;2022-10-16T17:16:51;100856.16;;;18.86;100.00
44988;BME280;35735;52.226;21.254;2022-10-16T17:21:52;100852.72;;;18.78;100.00
44988;BME280;35735;52.226;21.254;2022-10-16T17:26:52;100857.69;;;18.62;100.00
44988;BME280;35735;52.226;21.254;2022-10-16T17:31:55;100864.37;;;18.50;100.00
44988;BME280;35735;52.226;21.254;2022-10-16T17:36:55;100874.88;;;18.31;100.00
44988;BME280;35735;52.226;21.254;2022-10-16T17:41:56;100878.78;;;18.19;100.00
44988;BME280;35735;52.226;21.254;2022-10-16T17:46:57;100880.84;;;18.11;100.00
44988;BME280;35735;52.226;21.254;2022-10-16T17:51:57;100890.87;;;18.09;100.00
44988;BME280;35735;52.226;21.254;2022-10-16T17:56:58;100903.69;;;18.07;100.00
44988;BME280;35735;52.226;21.254;2022-10-16T18:01:58;100905.72;;;17.97;100.00
44988;BME280;35735;52.226;21.254;2022-10-16T18:06:59;100909.44;;;17.94;100.00
44988;BME280;35735;52.226;21.254;2022-10-16T18:11:59;100916.62;;;17.99;100.00
44988;BME280;35735;52.226;21.254;2022-10-16T18:17:00;100924.78;;;18.00;100.00
44988;BME280;35735;52.226;21.254;2022-10-16T18:22:01;100918.37;;;18.03;100.00
44988;BME280;35735;52.226;21.254;2022-10-16T18:27:01;100914.87;;;17.96;100.00
44988;BME280;35735;52.226;21.254;2022-10-16T18:32:02;100924.94;;;17.92;100.00
44988;BME280;35735;52.226;21.254;2022-10-16T18:37:02;100924.22;;;17.84;100.00
44988;BME280;35735;52.226;21.254;2022-10-16T18:42:03;100929.91;;;17.72;100.00
44988;BME280;35735;52.226;21.254;2022-10-16T18:47:03;100929.19;;;17.64;100.00
44988;BME280;35735;52.226;21.254;2022-10-16T18:52:04;100930.28;;;17.55;100.00
44988;BME280;35735;52.226;21.254;2022-10-16T18:57:05;100930.44;;;17.46;100.00
44988;BME280;35735;52.226;21.254;2022-10-16T19:02:11;100933.31;;;17.39;100.00
44988;BME280;35735;52.226;21.254;2022-10-16T19:07:12;100945.22;;;17.35;100.00
44988;BME280;35735;52.226;21.254;2022-10-16T19:12:12;100948.22;;;17.21;100.00
44988;BME280;35735;52.226;21.254;2022-10-16T19:17:13;100960.06;;;17.19;100.00
44988;BME280;35735;52.226;21.254;2022-10-16T19:22:13;100955.53;;;17.19;100.00
44988;BME280;35735;52.226;21.254;2022-10-16T19:27:14;100966.50;;;17.16;100.00
44988;BME280;35735;52.226;21.254;2022-10-16T19:32:15;100979.13;;;17.20;100.00
44988;BME280;35735;52.226;21.254;2022-10-16T19:37:15;100983.78;;;17.15;100.00
44988;BME280;35735;52.226;21.254;2022-10-16T19:42:16;100982.00;;;17.14;100.00
44988;BME280;35735;52.226;21.254;2022-10-16T19:47:16;100988.31;;;17.18;100.00
44988;BME280;35735;52.226;21.254;2022-10-16T19:52:17;101002.87;;;17.15;100.00
44988;BME280;35735;52.226;21.254;2022-10-16T19:57:17;101005.75;;;17.09;100.00
44988;BME280;35735;52.226;21.254;2022-10-16T20:02:18;101005.84;;;17.03;100.00
44988;BME280;35735;52.226;21.254;2022-10-16T20:07:18;101005.97;;;16.94;100.00
44988;BME280;35735;52.226;21.254;2022-10-16T20:12:19;101016.09;;;16.85;100.00
44988;BME280;35735;52.226;21.254;2022-10-16T20:17:19;101020.69;;;16.80;100.00
44988;BME280;35735;52.226;21.254;2022-10-16T20:22:20;101027.28;;;16.67;100.00
44988;BME280;35735;52.226;21.254;2022-10-16T20:27:20;101029.34;;;16.51;100.00
44988;BME280;35735;52.226;21.254;2022-10-16T20:32:21;101029.59;;;16.36;100.00
44988;BME280;35735;52.226;21.254;2022-10-16T20:37:22;101038.78;;;16.25;100.00
44988;BME280;35735;52.226;21.254;2022-10-16T20:42:22;101041.75;;;16.05;100.00
44988;BME280;35735;52.226;21.254;2022-10-16T20:47:23;101050.19;;;15.85;100.00
44988;BME280;35735;52.226;21.254;2022-10-16T20:52:24;101061.19;;;15.76;100.00
44988;BME280;35735;52.226;21.254;2022-10-16T20:57:24;101066.75;;;15.62;100.00
44988;BME280;35735;52.226;21.254;2022-10-16T21:02:25;101077.75;;;15.51;100.00
44988;BME280;35735;52.226;21.254;2022-10-16T21:07:26;101088.72;;;15.42;100.00
44988;BME280;35735;52.226;21.254;2022-10-16T21:12:27;101088.78;;;15.33;100.00
44988;BME280;35735;52.226;21.254;2022-10-16T21:17:27;101084.34;;;15.24;100.00
44988;BME280;35735;52.226;21.254;2022-10-16T21:22:29;101083.47;;;15.21;100.00
44988;BME280;35735;52.226;21.254;2022-10-16T21:27:29;101091.66;;;15.19;100.00
44988;BME280;35735;52.226;21.254;2022-10-16T21:32:36;101090.81;;;15.11;100.00
44988;BME280;35735;52.226;21.254;2022-10-16T21:37:36;101094.41;;;15.10;100.00
44988;BME280;35735;52.226;21.254;2022-10-16T21:42:37;101098.09;;;15.07;100.00
44988;BME280;35735;52.226;21.254;2022-10-16T21:47:37;101106.28;;;14.99;100.00
44988;BME280;35735;52.226;21.254;2022-10-16T21:52:38;101113.59;;;14.91;100.00
44988;BME280;35735;52.226;21.254;2022-10-16T21:57:39;101114.56;;;14.79;100.00
44988;BME280;35735;52.226;21.254;2022-10-16T22:02:39;101115.53;;;14.71;100.00
44988;BME280;35735;52.226;21.254;2022-10-16T22:07:40;101111.97;;;14.62;100.00
44988;BME280;35735;52.226;21.254;2022-10-16T22:12:40;101115.63;;;14.52;100.00
44988;BME280;35735;52.226;21.254;2022-10-16T22:17:41;101122.94;;;14.35;100.00
44988;BME280;35735;52.226;21.254;2022-10-16T22:22:41;101124.75;;;14.30;100.00
44988;BME280;35735;52.226;21.254;2022-10-16T22:27:42;101141.09;;;14.23;100.00
44988;BME280;35735;52.226;21.254;2022-10-16T22:32:42;101143.84;;;14.08;100.00
44988;BME280;35735;52.226;21.254;2022-10-16T22:37:43;101142.06;;;13.99;100.00
44988;BME280;35735;52.226;21.254;2022-10-16T22:42:44;101140.28;;;13.90;100.00
44988;BME280;35735;52.226;21.254;2022-10-16T22:47:44;101145.72;;;13.84;100.00
44988;BME280;35735;52.226;21.254;2022-10-16T22:52:45;101157.50;;;13.77;100.00
44988;BME280;35735;52.226;21.254;2022-10-16T22:57:45;101171.97;;;13.70;100.00
44988;BME280;35735;52.226;21.254;2022-10-16T23:02:46;101167.44;;;13.60;100.00
44988;BME280;35735;52.226;21.254;2022-10-16T23:07:46;101162.03;;;13.57;100.00
44988;BME280;35735;52.226;21.254;2022-10-16T23:12:47;101159.31;;;13.47;100.00
44988;BME280;35735;52.226;21.254;2022-10-16T23:17:47;101160.22;;;13.39;100.00
44988;BME280;35735;52.226;21.254;2022-10-16T23:22:48;101167.47;;;13.35;100.00
44988;BME280;35735;52.226;21.254;2022-10-16T23:27:49;101168.31;;;13.28;100.00
44988;BME280;35735;52.226;21.254;2022-10-16T23:32:49;101166.50;;;13.18;100.00
44988;BME280;35735;52.226;21.254;2022-10-16T23:37:50;101173.69;;;13.06;100.00
44988;BME280;35735;52.226;21.254;2022-10-16T23:42:50;101182.72;;;12.99;100.00
44988;BME280;35735;52.226;21.254;2022-10-16T23:47:51;101184.50;;;12.88;100.00
44988;BME280;35735;52.226;21.254;2022-10-16T23:52:51;101184.50;;;12.83;100.00
44988;BME280;35735;52.226;21.254;2022-10-16T23:57:52;101208.88;;;12.78;100.00
